createdAt,value
2016-06-10T00:00:34.036Z,0
2016-06-10T00:01:34.102Z,0
2016-06-10T00:02:34.136Z,0
2016-06-10T00:03:34.154Z,0
2016-06-10T00:04:34.189Z,0
2016-06-10T00:05:34.130Z,0
2016-06-10T00:06:34.304Z,0
2016-06-10T00:07:34.167Z,0
2016-06-10T00:08:34.342Z,0
2016-06-10T00:09:34.470Z,0
2016-06-10T00:10:34.473Z,0
2016-06-10T00:11:34.461Z,0
2016-06-10T00:12:34.526Z,0
2016-06-10T00:13:34.560Z,0
2016-06-10T00:14:34.610Z,0
2016-06-10T00:15:34.645Z,0
2016-06-10T00:16:34.694Z,0
2016-06-10T00:17:34.808Z,0
2016-06-10T00:18:34.764Z,0
2016-06-10T00:19:34.797Z,0
2016-06-10T00:20:34.863Z,0
2016-06-10T00:21:34.945Z,0
2016-06-10T00:22:34.917Z,0
2016-06-10T00:23:34.981Z,0
2016-06-10T00:24:35.110Z,0
2016-06-10T00:25:35.035Z,0
2016-06-10T00:26:35.100Z,0
2016-06-10T00:27:35.182Z,0
2016-06-10T00:28:35.216Z,0
2016-06-10T00:29:35.094Z,0
2016-06-10T00:30:35.284Z,0
2016-06-10T00:31:35.365Z,0
2016-06-10T00:32:35.384Z,0
2016-06-10T00:33:35.371Z,0
2016-06-10T00:34:35.438Z,0
2016-06-10T00:35:35.457Z,0
2016-06-10T00:36:36.553Z,0
2016-06-10T00:37:37.447Z,0
2016-06-10T00:38:35.591Z,0
2016-06-10T00:39:35.687Z,0
2016-06-10T00:40:36.675Z,0
2016-06-10T00:41:35.693Z,0
2016-06-10T00:42:35.806Z,0
2016-06-10T00:43:35.778Z,0
2016-06-10T00:44:35.827Z,0
2016-06-10T00:45:35.862Z,0
2016-06-10T00:46:35.772Z,0
2016-06-10T00:47:36.025Z,0
2016-06-10T00:48:35.965Z,0
2016-06-10T00:49:36.030Z,0
2016-06-10T00:50:36.143Z,0
2016-06-10T00:51:36.146Z,0
2016-06-10T00:52:36.180Z,0
2016-06-10T00:53:36.199Z,0
2016-06-10T00:54:36.233Z,0
2016-06-10T00:55:36.814Z,0
2016-06-10T00:56:36.317Z,0
2016-06-10T00:57:36.430Z,0
2016-06-10T00:58:36.402Z,0
2016-06-10T00:59:36.437Z,0
2016-06-10T01:00:36.502Z,0
2016-06-10T01:01:36.537Z,0
2016-06-10T01:02:36.540Z,0
2016-06-10T01:03:36.589Z,0
2016-06-10T01:04:36.624Z,0
2016-06-10T01:05:36.674Z,0
2016-06-10T01:06:36.708Z,0
2016-06-10T01:07:36.773Z,0
2016-06-10T01:08:36.808Z,0
2016-06-10T01:09:38.357Z,0
2016-06-10T01:10:36.877Z,0
2016-06-10T01:11:36.943Z,0
2016-06-10T01:12:36.946Z,0
2016-06-10T01:13:36.995Z,0
2016-06-10T01:14:36.905Z,0
2016-06-10T01:15:37.111Z,0
2016-06-10T01:16:37.114Z,0
2016-06-10T01:17:37.148Z,0
2016-06-10T01:18:37.260Z,0
2016-06-10T01:19:37.248Z,0
2016-06-10T01:20:37.127Z,0
2016-06-10T01:21:37.316Z,0
2016-06-10T01:22:37.397Z,0
2016-06-10T01:23:37.447Z,0
2016-06-10T01:24:38.029Z,0
2016-06-10T01:25:37.328Z,0
2016-06-10T01:26:37.582Z,0
2016-06-10T01:27:37.569Z,0
2016-06-10T01:28:37.604Z,0
2016-06-10T01:29:37.653Z,0
2016-06-10T01:30:37.688Z,0
2016-06-10T01:31:37.737Z,0
2016-06-10T01:32:37.803Z,0
2016-06-10T01:33:37.806Z,0
2016-06-10T01:34:37.731Z,0
2016-06-10T01:35:37.734Z,0
2016-06-10T01:36:37.848Z,0
2016-06-10T01:37:38.772Z,0
2016-06-10T01:38:39.743Z,0
2016-06-10T01:39:38.044Z,0
2016-06-10T01:40:38.922Z,0
2016-06-10T01:41:38.143Z,0
2016-06-10T01:42:38.178Z,0
2016-06-10T01:43:38.416Z,0
2016-06-10T01:44:38.278Z,0
2016-06-10T01:45:38.312Z,0
2016-06-10T01:46:38.331Z,0
2016-06-10T01:47:38.443Z,0
2016-06-10T01:48:38.477Z,0
2016-06-10T01:49:38.449Z,0
2016-06-10T01:50:38.499Z,0
2016-06-10T01:51:38.519Z,0
2016-06-10T01:52:38.569Z,0
2016-06-10T01:53:38.617Z,0
2016-06-10T01:54:38.715Z,0
2016-06-10T01:55:39.624Z,0
2016-06-10T01:56:38.736Z,0
2016-06-10T01:57:38.787Z,0
2016-06-10T01:58:38.837Z,0
2016-06-10T01:59:38.996Z,0
2016-06-10T02:00:41.561Z,0
2016-06-10T02:01:38.939Z,0
2016-06-10T02:02:38.817Z,0
2016-06-10T02:03:39.008Z,0
2016-06-10T02:04:39.042Z,0
2016-06-10T02:05:39.124Z,0
2016-06-10T02:06:40.939Z,0
2016-06-10T02:07:39.161Z,0
2016-06-10T02:08:39.243Z,0
2016-06-10T02:09:39.276Z,0
2016-06-10T02:10:38.999Z,0
2016-06-10T02:11:41.579Z,0
2016-06-10T02:12:39.442Z,0
2016-06-10T02:13:39.461Z,0
2016-06-10T02:14:39.464Z,0
2016-06-10T02:15:39.482Z,0
2016-06-10T02:16:39.532Z,0
2016-06-10T02:17:39.567Z,0
2016-06-10T02:18:39.460Z,0
2016-06-10T02:19:39.697Z,0
2016-06-10T02:20:39.716Z,0
2016-06-10T02:21:39.735Z,0
2016-06-10T02:22:40.707Z,0
2016-06-10T02:23:39.819Z,0
2016-06-10T02:24:39.870Z,0
2016-06-10T02:25:39.623Z,0
2016-06-10T02:26:39.985Z,0
2016-06-10T02:27:40.035Z,0
2016-06-10T02:28:40.022Z,0
2016-06-10T02:29:40.057Z,0
2016-06-10T02:30:40.123Z,0
2016-06-10T02:31:40.125Z,0
2016-06-10T02:32:40.175Z,0
2016-06-10T02:33:40.241Z,0
2016-06-10T02:34:40.260Z,0
2016-06-10T02:35:40.293Z,0
2016-06-10T02:36:40.359Z,0
2016-06-10T02:37:40.441Z,0
2016-06-10T02:38:40.498Z,0
2016-06-10T02:39:40.538Z,0
2016-06-10T02:40:41.110Z,0
2016-06-10T02:41:40.761Z,0
2016-06-10T02:42:40.760Z,0
2016-06-10T02:43:40.808Z,0
2016-06-10T02:44:40.903Z,0
2016-06-10T02:45:40.967Z,0
2016-06-10T02:46:40.984Z,5
2016-06-10T02:47:41.027Z,5
2016-06-10T02:48:41.113Z,5
2016-06-10T02:49:41.153Z,5
2016-06-10T02:50:41.160Z,5
2016-06-10T02:51:41.231Z,5
2016-06-10T02:52:41.330Z,5
2016-06-10T02:53:41.289Z,5
2016-06-10T02:54:41.325Z,5
2016-06-10T02:55:41.424Z,10
2016-06-10T02:56:41.444Z,10
2016-06-10T02:57:41.465Z,10
2016-06-10T02:58:41.562Z,10
2016-06-10T02:59:41.503Z,10
2016-06-10T03:00:41.585Z,10
2016-06-10T03:01:41.620Z,10
2016-06-10T03:02:41.734Z,15
2016-06-10T03:03:41.751Z,15
2016-06-10T03:04:41.739Z,15
2016-06-10T03:05:41.790Z,15
2016-06-10T03:06:41.870Z,15
2016-06-10T03:07:41.858Z,15
2016-06-10T03:08:41.908Z,20
2016-06-10T03:09:42.005Z,20
2016-06-10T03:10:42.617Z,20
2016-06-10T03:11:42.026Z,20
2016-06-10T03:12:42.076Z,25
2016-06-10T03:13:42.142Z,25
2016-06-10T03:14:42.177Z,25
2016-06-10T03:15:42.195Z,25
2016-06-10T03:16:42.276Z,30
2016-06-10T03:17:42.295Z,30
2016-06-10T03:18:42.297Z,30
2016-06-10T03:19:42.379Z,30
2016-06-10T03:20:42.413Z,30
2016-06-10T03:21:42.464Z,35
2016-06-10T03:22:42.467Z,35
2016-06-10T03:23:42.500Z,35
2016-06-10T03:24:42.582Z,35
2016-06-10T03:25:42.835Z,40
2016-06-10T03:26:42.619Z,40
2016-06-10T03:27:42.700Z,40
2016-06-10T03:28:42.735Z,40
2016-06-10T03:29:42.738Z,40
2016-06-10T03:30:42.789Z,45
2016-06-10T03:31:42.869Z,45
2016-06-10T03:32:42.950Z,45
2016-06-10T03:33:42.907Z,45
2016-06-10T03:34:42.940Z,50
2016-06-10T03:35:43.006Z,50
2016-06-10T03:36:43.072Z,50
2016-06-10T03:37:43.075Z,55
2016-06-10T03:38:43.141Z,55
2016-06-10T03:39:43.159Z,55
2016-06-10T03:40:43.256Z,60
2016-06-10T03:41:43.228Z,55
2016-06-10T03:42:44.513Z,55
2016-06-10T03:43:43.390Z,60
2016-06-10T03:44:43.347Z,60
2016-06-10T03:45:43.397Z,65
2016-06-10T03:46:43.477Z,65
2016-06-10T03:47:43.497Z,70
2016-06-10T03:48:43.515Z,70
2016-06-10T03:49:43.550Z,70
2016-06-10T03:50:43.584Z,75
2016-06-10T03:51:43.493Z,75
2016-06-10T03:52:43.684Z,75
2016-06-10T03:53:43.718Z,75
2016-06-10T03:54:43.830Z,80
2016-06-10T03:55:44.271Z,80
2016-06-10T03:56:43.822Z,85
2016-06-10T03:57:43.950Z,85
2016-06-10T03:58:43.937Z,85
2016-06-10T03:59:43.970Z,85
2016-06-10T04:00:44.037Z,90
2016-06-10T04:01:44.055Z,90
2016-06-10T04:02:44.073Z,95
2016-06-10T04:03:44.108Z,95
2016-06-10T04:04:44.205Z,100
2016-06-10T04:05:44.239Z,95
2016-06-10T04:06:44.227Z,100
2016-06-10T04:07:44.277Z,100
2016-06-10T04:08:44.358Z,100
2016-06-10T04:09:45.095Z,100
2016-06-10T04:10:46.707Z,95
2016-06-10T04:11:46.429Z,100
2016-06-10T04:12:45.230Z,100
2016-06-10T04:13:45.202Z,100
2016-06-10T04:14:45.204Z,100
2016-06-10T04:15:44.973Z,100
2016-06-10T04:16:45.413Z,105
2016-06-10T04:17:45.370Z,105
2016-06-10T04:18:45.482Z,110
2016-06-10T04:19:45.517Z,110
2016-06-10T04:20:45.551Z,110
2016-06-10T04:21:46.758Z,110
2016-06-10T04:22:46.307Z,110
2016-06-10T04:23:45.717Z,110
2016-06-10T04:24:45.719Z,115
2016-06-10T04:25:45.926Z,115
2016-06-10T04:26:45.789Z,115
2016-06-10T04:27:45.448Z,120
2016-06-10T04:28:45.435Z,120
2016-06-10T04:29:45.938Z,120
2016-06-10T04:30:45.785Z,125
2016-06-10T04:31:45.272Z,135
2016-06-10T04:32:45.307Z,130
2016-06-10T04:33:45.341Z,135
2016-06-10T04:34:45.391Z,130
2016-06-10T04:35:45.425Z,125
2016-06-10T04:36:45.444Z,125
2016-06-10T04:37:45.494Z,130
2016-06-10T04:38:45.575Z,130
2016-06-10T04:39:45.562Z,130
2016-06-10T04:40:46.190Z,130
2016-06-10T04:41:45.788Z,130
2016-06-10T04:42:45.743Z,125
2016-06-10T04:43:45.731Z,120
2016-06-10T04:44:45.766Z,130
2016-06-10T04:45:45.862Z,135
2016-06-10T04:46:45.912Z,140
2016-06-10T04:47:45.900Z,145
2016-06-10T04:48:46.215Z,150
2016-06-10T04:49:46.281Z,155
2016-06-10T04:50:45.893Z,155
2016-06-10T04:51:46.052Z,150
2016-06-10T04:52:46.400Z,150
2016-06-10T04:53:46.308Z,155
2016-06-10T04:54:46.312Z,165
2016-06-10T04:55:46.767Z,175
2016-06-10T04:56:47.193Z,175
2016-06-10T04:57:46.337Z,190
2016-06-10T04:58:46.465Z,195
2016-06-10T04:59:46.530Z,175
2016-06-10T05:00:46.658Z,170
2016-06-10T05:01:46.458Z,170
2016-06-10T05:02:46.509Z,170
2016-06-10T05:03:46.558Z,165
2016-06-10T05:04:46.686Z,150
2016-06-10T05:05:46.642Z,135
2016-06-10T05:06:46.677Z,120
2016-06-10T05:07:46.820Z,120
2016-06-10T05:08:46.792Z,115
2016-06-10T05:09:48.139Z,115
2016-06-10T05:10:46.846Z,120
2016-06-10T05:11:46.660Z,125
2016-06-10T05:12:46.977Z,125
2016-06-10T05:13:47.401Z,130
2016-06-10T05:14:47.717Z,135
2016-06-10T05:15:47.282Z,130
2016-06-10T05:16:47.207Z,125
2016-06-10T05:17:47.132Z,120
2016-06-10T05:18:47.010Z,120
2016-06-10T05:19:47.217Z,115
2016-06-10T05:20:47.252Z,120
2016-06-10T05:21:47.285Z,125
2016-06-10T05:22:47.383Z,120
2016-06-10T05:23:47.370Z,120
2016-06-10T05:24:48.060Z,120
2016-06-10T05:25:47.501Z,105
2016-06-10T05:26:48.176Z,90
2016-06-10T05:27:47.679Z,95
2016-06-10T05:28:47.572Z,120
2016-06-10T05:29:47.638Z,120
2016-06-10T05:30:48.375Z,115
2016-06-10T05:31:48.753Z,110
2016-06-10T05:32:48.491Z,115
2016-06-10T05:33:47.775Z,125
2016-06-10T05:34:47.826Z,145
2016-06-10T05:35:47.907Z,185
2016-06-10T05:36:47.926Z,195
2016-06-10T05:37:47.991Z,185
2016-06-10T05:38:48.025Z,170
2016-06-10T05:39:48.028Z,140
2016-06-10T05:40:48.609Z,135
2016-06-10T05:41:48.175Z,130
2016-06-10T05:42:48.147Z,140
2016-06-10T05:43:48.338Z,130
2016-06-10T05:44:50.356Z,130
2016-06-10T05:45:48.296Z,155
2016-06-10T05:46:49.206Z,155
2016-06-10T05:47:48.412Z,150
2016-06-10T05:48:48.259Z,160
2016-06-10T05:49:48.434Z,180
2016-06-10T05:50:50.890Z,190
2016-06-10T05:51:48.549Z,185
2016-06-10T05:52:48.568Z,165
2016-06-10T05:53:48.618Z,185
2016-06-10T05:54:48.621Z,220
2016-06-10T05:55:49.499Z,250
2016-06-10T05:56:49.065Z,260
2016-06-10T05:57:48.786Z,260
2016-06-10T05:58:48.806Z,265
2016-06-10T05:59:48.934Z,280
2016-06-10T06:00:48.889Z,285
2016-06-10T06:01:48.923Z,265
2016-06-10T06:02:49.005Z,230
2016-06-10T06:03:49.071Z,205
2016-06-10T06:04:49.043Z,190
2016-06-10T06:05:49.107Z,185
2016-06-10T06:06:49.377Z,185
2016-06-10T06:07:49.755Z,185
2016-06-10T06:08:49.211Z,230
2016-06-10T06:09:49.323Z,270
2016-06-10T06:10:49.358Z,260
2016-06-10T06:11:51.079Z,250
2016-06-10T06:12:49.395Z,240
2016-06-10T06:13:49.430Z,240
2016-06-10T06:14:49.448Z,245
2016-06-10T06:15:49.983Z,250
2016-06-10T06:16:50.033Z,255
2016-06-10T06:17:49.755Z,250
2016-06-10T06:18:49.711Z,265
2016-06-10T06:19:51.464Z,230
2016-06-10T06:20:50.951Z,240
2016-06-10T06:21:52.673Z,225
2016-06-10T06:22:52.613Z,195
2016-06-10T06:23:58.429Z,175
2016-06-10T06:24:59.729Z,195
2016-06-10T06:25:57.997Z,220
2016-06-10T06:26:54.579Z,165
2016-06-10T06:27:52.801Z,135
2016-06-10T06:28:54.586Z,145
2016-06-10T06:29:53.197Z,185
2016-06-10T06:30:53.606Z,220
2016-06-10T06:31:55.985Z,215
2016-06-10T06:32:54.488Z,180
2016-06-10T06:33:53.804Z,145
2016-06-10T06:34:54.041Z,145
2016-06-10T06:35:55.372Z,160
2016-06-10T06:36:55.813Z,200
2016-06-10T06:37:56.722Z,225
2016-06-10T06:38:53.912Z,260
2016-06-10T06:39:55.103Z,325
2016-06-10T06:40:58.638Z,345
2016-06-10T06:41:54.078Z,350
2016-06-10T06:42:53.784Z,330
2016-06-10T06:43:53.725Z,310
2016-06-10T06:44:52.900Z,295
2016-06-10T06:45:54.513Z,270
2016-06-10T06:46:55.656Z,260
2016-06-10T06:47:57.222Z,240
2016-06-10T06:48:55.178Z,240
2016-06-10T06:49:56.790Z,260
2016-06-10T06:50:54.903Z,295
2016-06-10T06:52:04.422Z,290
2016-06-10T06:52:55.221Z,250
2016-06-10T06:53:55.662Z,200
2016-06-10T06:54:55.165Z,170
2016-06-10T06:55:56.136Z,145
2016-06-10T06:56:53.656Z,140
2016-06-10T06:57:55.596Z,140
2016-06-10T06:58:54.740Z,140
2016-06-10T06:59:57.570Z,125
2016-06-10T07:00:59.715Z,130
2016-06-10T07:01:56.312Z,145
2016-06-10T07:02:55.846Z,165
2016-06-10T07:03:54.943Z,180
2016-06-10T07:04:54.384Z,185
2016-06-10T07:05:54.402Z,185
2016-06-10T07:06:55.577Z,230
2016-06-10T07:07:55.362Z,240
2016-06-10T07:08:55.365Z,250
2016-06-10T07:09:55.868Z,250
2016-06-10T07:10:55.604Z,240
2016-06-10T07:11:55.249Z,230
2016-06-10T07:12:57.861Z,235
2016-06-10T07:13:56.942Z,245
2016-06-10T07:14:57.039Z,255
2016-06-10T07:15:57.167Z,250
2016-06-10T07:16:56.592Z,250
2016-06-10T07:17:56.798Z,235
2016-06-10T07:18:56.489Z,250
2016-06-10T07:19:57.413Z,275
2016-06-10T07:20:58.480Z,305
2016-06-10T07:21:56.857Z,300
2016-06-10T07:23:03.672Z,295
2016-06-10T07:24:03.660Z,340
2016-06-10T07:24:58.211Z,380
2016-06-10T07:25:58.354Z,405
2016-06-10T07:26:56.545Z,400
2016-06-10T07:27:57.454Z,390
2016-06-10T07:28:59.473Z,335
2016-06-10T07:30:02.210Z,250
2016-06-10T07:30:58.527Z,215
2016-06-10T07:32:00.513Z,190
2016-06-10T07:32:56.922Z,185
2016-06-10T07:33:57.207Z,205
2016-06-10T07:34:55.772Z,195
2016-06-10T07:35:59.369Z,190
2016-06-10T07:36:57.840Z,205
2016-06-10T07:38:00.001Z,200
2016-06-10T07:39:01.160Z,200
2016-06-10T07:39:57.788Z,245
2016-06-10T07:41:02.338Z,275
2016-06-10T07:42:00.575Z,265
2016-06-10T07:42:59.438Z,265
2016-06-10T07:43:59.738Z,310
2016-06-10T07:45:02.006Z,335
2016-06-10T07:45:58.837Z,365
2016-06-10T07:46:58.606Z,405
2016-06-10T07:47:58.031Z,460
2016-06-10T07:48:57.441Z,510
2016-06-10T07:49:58.630Z,535
2016-06-10T07:50:56.697Z,535
2016-06-10T07:51:58.574Z,565
2016-06-10T07:52:55.749Z,630
2016-06-10T07:53:55.081Z,655
2016-06-10T07:54:54.928Z,660
2016-06-10T07:55:58.649Z,675
2016-06-10T07:56:56.012Z,690
2016-06-10T07:57:55.438Z,680
2016-06-10T07:58:54.565Z,680
2016-06-10T07:59:54.568Z,655
2016-06-10T08:00:54.931Z,635
2016-06-10T08:01:56.606Z,610
2016-06-10T08:02:57.670Z,595
2016-06-10T08:03:58.924Z,575
2016-06-10T08:04:57.990Z,550
2016-06-10T08:05:58.618Z,515
2016-06-10T08:06:57.949Z,480
2016-06-10T08:07:58.936Z,435
2016-06-10T08:08:59.377Z,380
2016-06-10T08:09:59.067Z,330
2016-06-10T08:10:58.602Z,300
2016-06-10T08:11:59.198Z,320
2016-06-10T08:12:54.452Z,360
2016-06-10T08:13:54.455Z,365
2016-06-10T08:14:54.692Z,340
2016-06-10T08:15:54.602Z,320
2016-06-10T08:16:54.839Z,355
2016-06-10T08:17:54.670Z,445
2016-06-10T08:18:54.720Z,505
2016-06-10T08:19:54.708Z,510
2016-06-10T08:20:54.758Z,480
2016-06-10T08:21:55.011Z,485
2016-06-10T08:22:54.811Z,480
2016-06-10T08:23:55.517Z,480
2016-06-10T08:24:55.629Z,485
2016-06-10T08:25:55.085Z,510
2016-06-10T08:26:55.182Z,500
2016-06-10T08:27:55.216Z,510
2016-06-10T08:28:56.438Z,535
2016-06-10T08:29:57.144Z,560
2016-06-10T08:30:58.772Z,630
2016-06-10T08:31:58.198Z,595
2016-06-10T08:32:59.481Z,605
2016-06-10T08:33:59.375Z,625
2016-06-10T08:35:00.706Z,620
2016-06-10T08:36:00.569Z,585
2016-06-10T08:36:59.760Z,550
2016-06-10T08:38:02.763Z,580
2016-06-10T08:38:58.860Z,535
2016-06-10T08:39:59.519Z,615
2016-06-10T08:40:57.053Z,665
2016-06-10T08:41:57.995Z,550
2016-06-10T08:42:57.731Z,370
2016-06-10T08:43:57.203Z,300
2016-06-10T08:44:56.971Z,280
2016-06-10T08:45:56.396Z,280
2016-06-10T08:46:56.963Z,280
2016-06-10T08:47:58.466Z,285
2016-06-10T08:48:57.937Z,275
2016-06-10T08:49:58.112Z,230
2016-06-10T08:50:57.522Z,225
2016-06-10T08:51:56.212Z,320
2016-06-10T08:52:57.481Z,360
2016-06-10T08:53:58.046Z,425
2016-06-10T08:54:57.878Z,470
2016-06-10T08:55:58.616Z,575
2016-06-10T08:56:57.430Z,600
2016-06-10T08:57:58.184Z,615
2016-06-10T08:58:58.390Z,590
2016-06-10T08:59:59.018Z,630
2016-06-10T09:00:58.099Z,695
2016-06-10T09:01:59.056Z,615
2016-06-10T09:02:57.762Z,560
2016-06-10T09:04:00.312Z,600
2016-06-10T09:04:59.174Z,625
2016-06-10T09:05:59.287Z,615
2016-06-10T09:07:00.243Z,690
2016-06-10T09:08:00.261Z,755
2016-06-10T09:09:00.686Z,695
2016-06-10T09:09:59.955Z,700
2016-06-10T09:10:58.614Z,685
2016-06-10T09:12:02.101Z,735
2016-06-10T09:13:02.214Z,760
2016-06-10T09:14:03.186Z,785
2016-06-10T09:15:01.033Z,825
2016-06-10T09:16:01.535Z,825
2016-06-10T09:17:03.758Z,715
2016-06-10T09:18:01.151Z,625
2016-06-10T09:19:01.420Z,525
2016-06-10T09:20:01.751Z,595
2016-06-10T09:21:01.973Z,685
2016-06-10T09:22:02.413Z,745
2016-06-10T09:23:01.229Z,690
2016-06-10T09:23:59.264Z,670
2016-06-10T09:25:00.517Z,765
2016-06-10T09:26:00.130Z,855
2016-06-10T09:26:57.945Z,810
2016-06-10T09:27:57.979Z,625
2016-06-10T09:28:58.169Z,615
2016-06-10T09:29:58.548Z,600
2016-06-10T09:31:00.660Z,665
2016-06-10T09:32:00.444Z,740
2016-06-10T09:33:00.698Z,785
2016-06-10T09:34:01.169Z,750
2016-06-10T09:34:58.032Z,805
2016-06-10T09:35:58.050Z,680
2016-06-10T09:36:58.241Z,725
2016-06-10T09:37:58.181Z,670
2016-06-10T09:38:58.153Z,685
2016-06-10T09:39:59.782Z,890
2016-06-10T09:40:58.301Z,1030
2016-06-10T09:41:58.647Z,985
2016-06-10T09:42:59.807Z,910
2016-06-10T09:43:58.419Z,855
2016-06-10T09:44:58.359Z,885
2016-06-10T09:45:58.659Z,815
2016-06-10T09:46:58.600Z,825
2016-06-10T09:47:58.587Z,845
2016-06-10T09:48:58.654Z,825
2016-06-10T09:49:58.704Z,795
2016-06-10T09:50:59.596Z,805
2016-06-10T09:51:59.319Z,820
2016-06-10T09:53:00.666Z,810
2016-06-10T09:53:58.903Z,810
2016-06-10T09:55:02.062Z,810
2016-06-10T09:55:59.690Z,795
2016-06-10T09:57:01.021Z,790
2016-06-10T09:58:02.212Z,860
2016-06-10T09:59:01.215Z,860
2016-06-10T10:00:02.624Z,825
2016-06-10T10:01:01.518Z,765
2016-06-10T10:02:00.552Z,745
2016-06-10T10:03:01.086Z,755
2016-06-10T10:04:00.981Z,720
2016-06-10T10:05:02.843Z,690
2016-06-10T10:05:59.440Z,710
2016-06-10T10:06:59.631Z,730
2016-06-10T10:07:59.602Z,725
2016-06-10T10:09:00.246Z,745
2016-06-10T10:09:59.593Z,755
2016-06-10T10:10:59.689Z,730
2016-06-10T10:11:59.614Z,730
2016-06-10T10:12:59.758Z,735
2016-06-10T10:13:59.636Z,740
2016-06-10T10:14:59.545Z,685
2016-06-10T10:15:59.768Z,570
2016-06-10T10:17:00.004Z,720
2016-06-10T10:17:59.835Z,750
2016-06-10T10:18:59.870Z,805
2016-06-10T10:20:00.061Z,755
2016-06-10T10:21:00.095Z,665
2016-06-10T10:22:00.285Z,710
2016-06-10T10:23:00.242Z,730
2016-06-10T10:24:00.136Z,720
2016-06-10T10:25:00.154Z,725
2016-06-10T10:26:00.235Z,730
2016-06-10T10:27:00.801Z,675
2016-06-10T10:28:01.054Z,660
2016-06-10T10:29:00.494Z,650
2016-06-10T10:30:00.435Z,660
2016-06-10T10:31:00.563Z,725
2016-06-10T10:32:00.597Z,790
2016-06-10T10:33:00.678Z,715
2016-06-10T10:34:00.714Z,750
2016-06-10T10:35:00.763Z,590
2016-06-10T10:36:01.001Z,540
2016-06-10T10:37:00.973Z,525
2016-06-10T10:38:03.819Z,650
2016-06-10T10:39:00.791Z,680
2016-06-10T10:40:00.825Z,700
2016-06-10T10:41:01.079Z,715
2016-06-10T10:42:01.082Z,735
2016-06-10T10:43:01.288Z,960
2016-06-10T10:44:01.197Z,1675
2016-06-10T10:45:01.279Z,1255
2016-06-10T10:46:01.438Z,2045
2016-06-10T10:47:01.221Z,3240
2016-06-10T10:48:01.177Z,2445
2016-06-10T10:49:01.227Z,1610
2016-06-10T10:50:01.434Z,1745
2016-06-10T10:51:01.484Z,2295
2016-06-10T10:52:01.394Z,1920
2016-06-10T10:53:01.100Z,1675
2016-06-10T10:54:01.618Z,1475
2016-06-10T10:55:01.528Z,1860
2016-06-10T10:56:01.782Z,2550
2016-06-10T10:57:01.581Z,2900
2016-06-10T10:58:02.428Z,3385
2016-06-10T10:59:01.978Z,3375
2016-06-10T11:00:05.246Z,3340
2016-06-10T11:01:04.796Z,3310
2016-06-10T11:02:02.330Z,3335
2016-06-10T11:03:02.443Z,3380
2016-06-10T11:04:02.134Z,3455
2016-06-10T11:05:02.371Z,3455
2016-06-10T11:06:02.390Z,3445
2016-06-10T11:07:02.315Z,3430
2016-06-10T11:08:02.161Z,3435
2016-06-10T11:09:02.399Z,3470
2016-06-10T11:10:02.464Z,3485
2016-06-10T11:11:02.531Z,3460
2016-06-10T11:12:02.314Z,3425
2016-06-10T11:13:02.709Z,3415
2016-06-10T11:14:02.742Z,3425
2016-06-10T11:15:02.714Z,3440
2016-06-10T11:16:02.671Z,3455
2016-06-10T11:17:02.986Z,3445
2016-06-10T11:18:03.849Z,3405
2016-06-10T11:19:02.945Z,3485
2016-06-10T11:20:03.026Z,3455
2016-06-10T11:21:03.124Z,3420
2016-06-10T11:22:03.143Z,3430
2016-06-10T11:23:03.223Z,3475
2016-06-10T11:24:03.289Z,3640
2016-06-10T11:25:03.338Z,3755
2016-06-10T11:26:03.342Z,3955
2016-06-10T11:27:03.814Z,4275
2016-06-10T11:28:04.395Z,4295
2016-06-10T11:29:03.586Z,4350
2016-06-10T11:30:03.588Z,4290
2016-06-10T11:31:03.670Z,4360
2016-06-10T11:32:03.720Z,4535
2016-06-10T11:33:03.863Z,4590
2016-06-10T11:34:03.819Z,4550
2016-06-10T11:35:03.869Z,4595
2016-06-10T11:36:03.935Z,4355
2016-06-10T11:37:04.000Z,4360
2016-06-10T11:38:04.128Z,4375
2016-06-10T11:39:04.179Z,4125
2016-06-10T11:40:04.182Z,4420
2016-06-10T11:41:04.278Z,4335
2016-06-10T11:42:05.343Z,4255
2016-06-10T11:43:04.269Z,4345
2016-06-10T11:44:04.428Z,4340
2016-06-10T11:45:04.564Z,4275
2016-06-10T11:46:04.684Z,4170
2016-06-10T11:47:04.774Z,4085
2016-06-10T11:48:04.831Z,4170
2016-06-10T11:49:05.004Z,4140
2016-06-10T11:50:05.928Z,4080
2016-06-10T11:51:05.914Z,4130
2016-06-10T11:52:05.198Z,4145
2016-06-10T11:53:05.277Z,4200
2016-06-10T11:54:05.306Z,4280
2016-06-10T11:55:05.470Z,4320
2016-06-10T11:56:05.931Z,4275
2016-06-10T11:57:06.784Z,4325
2016-06-10T11:58:06.651Z,4230
2016-06-10T11:59:05.752Z,4240
2016-06-10T12:00:05.865Z,4265
2016-06-10T12:01:05.777Z,4225
2016-06-10T12:02:07.829Z,4275
2016-06-10T12:03:07.459Z,4340
2016-06-10T12:04:05.870Z,4295
2016-06-10T12:05:06.045Z,4235
2016-06-10T12:06:06.111Z,4185
2016-06-10T12:07:06.161Z,4165
2016-06-10T12:08:09.056Z,4205
2016-06-10T12:09:06.309Z,4185
2016-06-10T12:10:06.343Z,4245
2016-06-10T12:11:06.425Z,4175
2016-06-10T12:12:06.460Z,4160
2016-06-10T12:13:07.869Z,4090
2016-06-10T12:14:06.623Z,3975
2016-06-10T12:15:08.094Z,3965
2016-06-10T12:16:06.708Z,3855
2016-06-10T12:17:06.803Z,3825
2016-06-10T12:18:06.854Z,3760
2016-06-10T12:19:06.904Z,3820
2016-06-10T12:20:08.532Z,3930
2016-06-10T12:21:07.035Z,3910
2016-06-10T12:22:08.132Z,3895
2016-06-10T12:23:09.057Z,3905
2016-06-10T12:24:06.498Z,3915
2016-06-10T12:25:08.032Z,3920
2016-06-10T12:26:09.863Z,4020
2016-06-10T12:27:07.569Z,4040
2016-06-10T12:28:08.229Z,4070
2016-06-10T12:29:07.293Z,4110
2016-06-10T12:30:07.594Z,4115
2016-06-10T12:31:07.441Z,4115
2016-06-10T12:32:09.490Z,4055
2016-06-10T12:33:07.649Z,4090
2016-06-10T12:34:08.809Z,4040
2016-06-10T12:35:07.984Z,3980
2016-06-10T12:36:08.081Z,3905
2016-06-10T12:37:09.631Z,3810
2016-06-10T12:38:07.993Z,3830
2016-06-10T12:39:08.607Z,3780
2016-06-10T12:40:08.765Z,3785
2016-06-10T12:41:08.268Z,3815
2016-06-10T12:42:09.349Z,3790
2016-06-10T12:43:08.353Z,3755
2016-06-10T12:44:09.481Z,3750
2016-06-10T12:45:08.562Z,3675
2016-06-10T12:46:08.628Z,3590
2016-06-10T12:47:09.412Z,3575
2016-06-10T12:48:10.181Z,3590
2016-06-10T12:49:08.887Z,3555
2016-06-10T12:50:08.858Z,3595
2016-06-10T12:51:08.894Z,3695
2016-06-10T12:52:11.786Z,3745
2016-06-10T12:53:09.103Z,3770
2016-06-10T12:54:09.136Z,3810
2016-06-10T12:55:10.295Z,3795
2016-06-10T12:56:09.064Z,3775
2016-06-10T12:57:10.193Z,3715
2016-06-10T12:58:09.024Z,3675
2016-06-10T12:59:10.496Z,3715
2016-06-10T13:00:11.077Z,3440
2016-06-10T13:01:10.735Z,3685
2016-06-10T13:02:11.536Z,3685
2016-06-10T13:03:12.148Z,3700
2016-06-10T13:04:11.230Z,3660
2016-06-10T13:05:11.029Z,3655
2016-06-10T13:06:10.798Z,3610
2016-06-10T13:07:12.240Z,3615
2016-06-10T13:08:10.382Z,3625
2016-06-10T13:09:10.214Z,3625
2016-06-10T13:10:10.607Z,3595
2016-06-10T13:11:12.532Z,3350
2016-06-10T13:12:10.926Z,3245
2016-06-10T13:13:10.944Z,3220
2016-06-10T13:14:12.573Z,3165
2016-06-10T13:15:12.217Z,3120
2016-06-10T13:16:11.063Z,3035
2016-06-10T13:17:11.113Z,2885
2016-06-10T13:18:12.054Z,2855
2016-06-10T13:19:12.135Z,2810
2016-06-10T13:20:13.263Z,2775
2016-06-10T13:21:10.719Z,2740
2016-06-10T13:22:10.754Z,2635
2016-06-10T13:23:13.492Z,2815
2016-06-10T13:24:10.745Z,2865
2016-06-10T13:25:10.951Z,2965
2016-06-10T13:26:15.454Z,3035
2016-06-10T13:27:11.082Z,3050
2016-06-10T13:28:10.975Z,3035
2016-06-10T13:29:13.588Z,2990
2016-06-10T13:30:11.138Z,2930
2016-06-10T13:31:13.500Z,2890
2016-06-10T13:32:11.362Z,2870
2016-06-10T13:33:13.741Z,2880
2016-06-10T13:34:12.338Z,2890
2016-06-10T13:35:11.544Z,2910
2016-06-10T13:36:11.718Z,2920
2016-06-10T13:37:13.378Z,2945
2016-06-10T13:38:11.725Z,2970
2016-06-10T13:39:11.806Z,2945
2016-06-10T13:40:14.372Z,2950
2016-06-10T13:41:11.922Z,2965
2016-06-10T13:42:12.847Z,2965
2016-06-10T13:43:13.225Z,2975
2016-06-10T13:44:26.368Z,2910
2016-06-10T13:45:16.746Z,2875
2016-06-10T13:46:12.234Z,2845
2016-06-10T13:47:12.347Z,2825
2016-06-10T13:48:12.630Z,2810
2016-06-10T13:49:12.414Z,2790
2016-06-10T13:50:13.386Z,2805
2016-06-10T13:51:14.092Z,2825
2016-06-10T13:52:12.580Z,2825
2016-06-10T13:53:13.943Z,2805
2016-06-10T13:54:13.555Z,2805